sensor_id;sensor_type;location;lat;lon;timestamp;pressure;altitude;pressure_sealevel;temperature;humidity
2711;BME280;20721;47.402;8.550;2022-09-02T00:00:05;96029;;;17.69;58.10
2711;BME280;20721;47.402;8.550;2022-09-02T00:01:02;96029;;;17.67;58.10
2711;BME280;20721;47.402;8.550;2022-09-02T00:03:00;96034;;;17.66;58.17
2711;BME280;20721;47.402;8.550;2022-09-02T00:04:01;96029;;;17.64;58.18
2711;BME280;20721;47.402;8.550;2022-09-02T00:05:00;96030;;;17.63;58.25
2711;BME280;20721;47.402;8.550;2022-09-02T00:06:00;96029;;;17.62;58.32
2711;BME280;20721;47.402;8.550;2022-09-02T00:08:00;96025;;;17.61;58.35
2711;BME280;20721;47.402;8.550;2022-09-02T00:09:00;96026;;;17.60;58.41
2711;BME280;20721;47.402;8.550;2022-09-02T00:10:00;96025;;;17.58;58.54
2711;BME280;20721;47.402;8.550;2022-09-02T00:13:00;96024;;;17.57;58.54
2711;BME280;20721;47.402;8.550;2022-09-02T00:14:03;96021;;;17.56;58.49
2711;BME280;20721;47.402;8.550;2022-09-02T00:15:00;96019;;;17.55;58.53
2711;BME280;20721;47.402;8.550;2022-09-02T00:16:00;96021;;;17.54;58.55
2711;BME280;20721;47.402;8.550;2022-09-02T00:18:00;96018;;;17.52;58.59
2711;BME280;20721;47.402;8.550;2022-09-02T00:19:01;96018;;;17.51;58.64
2711;BME280;20721;47.402;8.550;2022-09-02T00:21:00;96014;;;17.50;58.66
2711;BME280;20721;47.402;8.550;2022-09-02T00:22:00;96015;;;17.49;58.71
2711;BME280;20721;47.402;8.550;2022-09-02T00:23:00;96015;;;17.47;58.76
2711;BME280;20721;47.402;8.550;2022-09-02T00:24:00;96013;;;17.46;58.80
2711;BME280;20721;47.402;8.550;2022-09-02T00:25:00;96013;;;17.45;58.84
2711;BME280;20721;47.402;8.550;2022-09-02T00:28:00;96012;;;17.44;58.88
2711;BME280;20721;47.402;8.550;2022-09-02T00:29:00;96015;;;17.45;58.98
2711;BME280;20721;47.402;8.550;2022-09-02T00:30:00;96016;;;17.46;58.95
2711;BME280;20721;47.402;8.550;2022-09-02T00:31:00;96015;;;17.45;58.97
2711;BME280;20721;47.402;8.550;2022-09-02T00:32:00;96019;;;17.44;58.91
2711;BME280;20721;47.402;8.550;2022-09-02T00:33:00;96016;;;17.40;59.02
2711;BME280;20721;47.402;8.550;2022-09-02T00:34:00;96014;;;17.38;59.02
2711;BME280;20721;47.402;8.550;2022-09-02T00:35:00;96015;;;17.37;59.07
2711;BME280;20721;47.402;8.550;2022-09-02T00:36:00;96014;;;17.35;59.07
2711;BME280;20721;47.402;8.550;2022-09-02T00:37:00;96011;;;17.34;59.12
2711;BME280;20721;47.402;8.550;2022-09-02T00:38:00;96013;;;17.33;59.16
2711;BME280;20721;47.402;8.550;2022-09-02T00:39:00;96013;;;17.32;59.18
2711;BME280;20721;47.402;8.550;2022-09-02T00:40:00;96013;;;17.31;59.20
2711;BME280;20721;47.402;8.550;2022-09-02T00:41:01;96013;;;17.30;59.26
2711;BME280;20721;47.402;8.550;2022-09-02T00:43:00;96013;;;17.32;59.21
2711;BME280;20721;47.402;8.550;2022-09-02T00:44:02;96013;;;17.33;59.23
2711;BME280;20721;47.402;8.550;2022-09-02T00:47:00;96011;;;17.34;59.16
2711;BME280;20721;47.402;8.550;2022-09-02T00:49:04;96007;;;17.35;59.20
2711;BME280;20721;47.402;8.550;2022-09-02T00:50:00;96007;;;17.34;59.15
2711;BME280;20721;47.402;8.550;2022-09-02T00:51:02;96006;;;17.33;59.23
2711;BME280;20721;47.402;8.550;2022-09-02T00:52:02;96004;;;17.32;59.23
2711;BME280;20721;47.402;8.550;2022-09-02T00:53:03;96004;;;17.31;59.24
2711;BME280;20721;47.402;8.550;2022-09-02T00:54:00;96005;;;17.30;59.28
2711;BME280;20721;47.402;8.550;2022-09-02T00:55:03;96005;;;17.29;59.30
2711;BME280;20721;47.402;8.550;2022-09-02T00:56:00;96005;;;17.28;59.38
2711;BME280;20721;47.402;8.550;2022-09-02T00:58:02;96004;;;17.27;59.41
2711;BME280;20721;47.402;8.550;2022-09-02T00:59:00;96007;;;17.28;59.43
2711;BME280;20721;47.402;8.550;2022-09-02T01:01:00;96007;;;17.26;59.43
2711;BME280;20721;47.402;8.550;2022-09-02T01:03:02;96007;;;17.25;59.43
2711;BME280;20721;47.402;8.550;2022-09-02T01:04:00;96009;;;17.22;59.51
2711;BME280;20721;47.402;8.550;2022-09-02T01:06:01;96011;;;17.21;59.51
2711;BME280;20721;47.402;8.550;2022-09-02T01:07:02;96009;;;17.20;59.55
2711;BME280;20721;47.402;8.550;2022-09-02T01:08:00;96009;;;17.19;59.57
2711;BME280;20721;47.402;8.550;2022-09-02T01:09:02;96007;;;17.17;59.62
2711;BME280;20721;47.402;8.550;2022-09-02T01:10:01;96006;;;17.16;59.66
2711;BME280;20721;47.402;8.550;2022-09-02T01:11:03;96007;;;17.15;59.67
2711;BME280;20721;47.402;8.550;2022-09-02T01:12:02;96003;;;17.13;59.70
2711;BME280;20721;47.402;8.550;2022-09-02T01:13:02;96005;;;17.11;59.71
2711;BME280;20721;47.402;8.550;2022-09-02T01:14:00;96008;;;17.10;59.78
2711;BME280;20721;47.402;8.550;2022-09-02T01:15:00;96006;;;17.07;59.85
2711;BME280;20721;47.402;8.550;2022-09-02T01:16:05;96005;;;17.06;59.91
2711;BME280;20721;47.402;8.550;2022-09-02T01:18:00;96003;;;17.05;59.91
2711;BME280;20721;47.402;8.550;2022-09-02T01:19:00;96002;;;17.04;59.96
2711;BME280;20721;47.402;8.550;2022-09-02T01:20:03;96002;;;17.02;60.00
2711;BME280;20721;47.402;8.550;2022-09-02T01:21:00;96002;;;17.01;60.00
2711;BME280;20721;47.402;8.550;2022-09-02T01:22:00;96001;;;17.00;60.07
2711;BME280;20721;47.402;8.550;2022-09-02T01:23:01;96001;;;17.01;60.03
2711;BME280;20721;47.402;8.550;2022-09-02T01:25:02;96001;;;17.03;60.09
2711;BME280;20721;47.402;8.550;2022-09-02T01:30:00;96001;;;17.02;60.00
2711;BME280;20721;47.402;8.550;2022-09-02T01:32:01;96001;;;17.01;60.06
2711;BME280;20721;47.402;8.550;2022-09-02T01:34:00;96000;;;17.00;60.08
2711;BME280;20721;47.402;8.550;2022-09-02T01:35:00;96004;;;16.99;60.12
2711;BME280;20721;47.402;8.550;2022-09-02T01:38:01;95996;;;16.98;60.03
2711;BME280;20721;47.402;8.550;2022-09-02T01:40:00;96000;;;16.97;60.08
2711;BME280;20721;47.402;8.550;2022-09-02T01:42:00;95996;;;16.96;60.10
2711;BME280;20721;47.402;8.550;2022-09-02T01:44:00;95999;;;16.95;60.17
2711;BME280;20721;47.402;8.550;2022-09-02T01:45:00;96000;;;16.94;60.21
2711;BME280;20721;47.402;8.550;2022-09-02T01:46:00;95997;;;16.93;60.21
2711;BME280;20721;47.402;8.550;2022-09-02T01:47:00;95995;;;16.91;60.27
2711;BME280;20721;47.402;8.550;2022-09-02T01:48:01;95998;;;16.90;60.30
2711;BME280;20721;47.402;8.550;2022-09-02T01:49:00;95997;;;16.89;60.36
2711;BME280;20721;47.402;8.550;2022-09-02T01:51:01;95994;;;16.88;60.37
2711;BME280;20721;47.402;8.550;2022-09-02T01:53:02;95992;;;16.87;60.42
2711;BME280;20721;47.402;8.550;2022-09-02T01:54:00;95994;;;16.88;60.44
2711;BME280;20721;47.402;8.550;2022-09-02T01:56:00;95990;;;16.87;60.44
2711;BME280;20721;47.402;8.550;2022-09-02T01:57:00;95992;;;16.85;60.47
2711;BME280;20721;47.402;8.550;2022-09-02T01:58:00;95989;;;16.84;60.49
2711;BME280;20721;47.402;8.550;2022-09-02T02:00:03;95986;;;16.83;60.53
2711;BME280;20721;47.402;8.550;2022-09-02T02:01:00;95988;;;16.82;60.53
2711;BME280;20721;47.402;8.550;2022-09-02T02:02:01;95987;;;16.80;60.58
2711;BME280;20721;47.402;8.550;2022-09-02T02:04:01;95985;;;16.79;60.59
2711;BME280;20721;47.402;8.550;2022-09-02T02:05:01;95985;;;16.77;60.70
2711;BME280;20721;47.402;8.550;2022-09-02T02:06:01;95986;;;16.75;60.69
2711;BME280;20721;47.402;8.550;2022-09-02T02:07:00;95984;;;16.74;60.70
2711;BME280;20721;47.402;8.550;2022-09-02T02:08:00;95985;;;16.73;60.75
2711;BME280;20721;47.402;8.550;2022-09-02T02:09:00;95986;;;16.71;60.81
2711;BME280;20721;47.402;8.550;2022-09-02T02:10:00;95990;;;16.70;60.88
2711;BME280;20721;47.402;8.550;2022-09-02T02:11:00;95986;;;16.69;60.84
2711;BME280;20721;47.402;8.550;2022-09-02T02:12:00;95988;;;16.68;60.83
2711;BME280;20721;47.402;8.550;2022-09-02T02:13:00;95992;;;16.67;60.92
2711;BME280;20721;47.402;8.550;2022-09-02T02:14:00;95994;;;16.66;60.94
2711;BME280;20721;47.402;8.550;2022-09-02T02:17:00;95995;;;16.65;60.96
2711;BME280;20721;47.402;8.550;2022-09-02T02:18:00;95992;;;16.64;60.94
2711;BME280;20721;47.402;8.550;2022-09-02T02:19:00;95995;;;16.62;61.07
2711;BME280;20721;47.402;8.550;2022-09-02T02:20:00;95989;;;16.61;61.04
2711;BME280;20721;47.402;8.550;2022-09-02T02:21:00;95994;;;16.60;61.09
2711;BME280;20721;47.402;8.550;2022-09-02T02:22:00;95996;;;16.59;61.10
2711;BME280;20721;47.402;8.550;2022-09-02T02:23:00;95994;;;16.58;61.10
2711;BME280;20721;47.402;8.550;2022-09-02T02:24:00;95998;;;16.57;61.15
2711;BME280;20721;47.402;8.550;2022-09-02T02:25:00;95995;;;16.58;61.13
2711;BME280;20721;47.402;8.550;2022-09-02T02:27:00;95996;;;16.57;61.12
2711;BME280;20721;47.402;8.550;2022-09-02T02:32:00;95992;;;16.56;61.10
2711;BME280;20721;47.402;8.550;2022-09-02T02:33:00;95989;;;16.57;61.07
2711;BME280;20721;47.402;8.550;2022-09-02T02:36:01;95986;;;16.56;61.09
2711;BME280;20721;47.402;8.550;2022-09-02T02:39:01;95987;;;16.55;61.13
2711;BME280;20721;47.402;8.550;2022-09-02T02:40:00;95990;;;16.54;61.13
2711;BME280;20721;47.402;8.550;2022-09-02T02:41:01;95988;;;16.53;61.14
2711;BME280;20721;47.402;8.550;2022-09-02T02:45:00;95984;;;16.54;61.09
2711;BME280;20721;47.402;8.550;2022-09-02T02:48:01;95991;;;16.53;61.05
2711;BME280;20721;47.402;8.550;2022-09-02T02:49:01;95991;;;16.52;61.05
2711;BME280;20721;47.402;8.550;2022-09-02T02:50:00;95991;;;16.51;61.05
2711;BME280;20721;47.402;8.550;2022-09-02T02:51:01;95990;;;16.50;61.05
2711;BME280;20721;47.402;8.550;2022-09-02T02:52:00;95991;;;16.49;61.06
2711;BME280;20721;47.402;8.550;2022-09-02T02:53:02;95990;;;16.50;61.07
2711;BME280;20721;47.402;8.550;2022-09-02T02:55:00;95990;;;16.51;61.08
2711;BME280;20721;47.402;8.550;2022-09-02T02:58:00;95990;;;16.52;61.10
2711;BME280;20721;47.402;8.550;2022-09-02T03:01:00;95996;;;16.51;61.06
2711;BME280;20721;47.402;8.550;2022-09-02T03:02:01;95993;;;16.49;61.04
2711;BME280;20721;47.402;8.550;2022-09-02T03:03:02;95993;;;16.46;61.04
2711;BME280;20721;47.402;8.550;2022-09-02T03:04:00;95995;;;16.43;61.10
2711;BME280;20721;47.402;8.550;2022-09-02T03:05:02;95991;;;16.42;61.09
2711;BME280;20721;47.402;8.550;2022-09-02T03:06:01;95991;;;16.40;61.03
2711;BME280;20721;47.402;8.550;2022-09-02T03:09:00;95992;;;16.39;60.96
2711;BME280;20721;47.402;8.550;2022-09-02T03:10:02;95992;;;16.37;60.96
2711;BME280;20721;47.402;8.550;2022-09-02T03:11:01;95995;;;16.36;60.92
2711;BME280;20721;47.402;8.550;2022-09-02T03:12:01;95994;;;16.35;60.99
2711;BME280;20721;47.402;8.550;2022-09-02T03:14:00;95993;;;16.34;60.88
2711;BME280;20721;47.402;8.550;2022-09-02T03:15:01;95995;;;16.33;60.88
2711;BME280;20721;47.402;8.550;2022-09-02T03:16:02;95995;;;16.35;60.79
2711;BME280;20721;47.402;8.550;2022-09-02T03:17:02;95993;;;16.36;60.72
2711;BME280;20721;47.402;8.550;2022-09-02T03:18:00;95994;;;16.37;60.62
2711;BME280;20721;47.402;8.550;2022-09-02T03:21:04;95994;;;16.36;60.59
2711;BME280;20721;47.402;8.550;2022-09-02T03:22:00;95993;;;16.35;60.57
2711;BME280;20721;47.402;8.550;2022-09-02T03:23:01;95993;;;16.34;60.60
2711;BME280;20721;47.402;8.550;2022-09-02T03:24:00;95993;;;16.32;60.53
2711;BME280;20721;47.402;8.550;2022-09-02T03:26:00;95992;;;16.33;60.44
2711;BME280;20721;47.402;8.550;2022-09-02T03:31:01;95994;;;16.32;60.45
2711;BME280;20721;47.402;8.550;2022-09-02T03:32:03;95991;;;16.30;60.47
2711;BME280;20721;47.402;8.550;2022-09-02T03:34:01;95987;;;16.29;60.55
2711;BME280;20721;47.402;8.550;2022-09-02T03:35:01;95988;;;16.28;60.61
2711;BME280;20721;47.402;8.550;2022-09-02T03:36:00;95987;;;16.27;60.63
2711;BME280;20721;47.402;8.550;2022-09-02T03:37:00;95990;;;16.26;60.72
2711;BME280;20721;47.402;8.550;2022-09-02T03:38:00;95993;;;16.25;60.70
2711;BME280;20721;47.402;8.550;2022-09-02T03:39:00;95991;;;16.24;60.65
2711;BME280;20721;47.402;8.550;2022-09-02T03:40:02;95991;;;16.23;60.63
2711;BME280;20721;47.402;8.550;2022-09-02T03:41:00;95991;;;16.22;60.62
2711;BME280;20721;47.402;8.550;2022-09-02T03:43:01;95997;;;16.21;60.67
2711;BME280;20721;47.402;8.550;2022-09-02T03:44:01;95992;;;16.20;60.70
2711;BME280;20721;47.402;8.550;2022-09-02T03:47:00;95995;;;16.19;60.67
2711;BME280;20721;47.402;8.550;2022-09-02T03:48:00;95993;;;16.20;60.60
2711;BME280;20721;47.402;8.550;2022-09-02T03:50:02;95996;;;16.19;60.60
2711;BME280;20721;47.402;8.550;2022-09-02T03:53:00;95997;;;16.18;60.55
2711;BME280;20721;47.402;8.550;2022-09-02T03:54:02;95997;;;16.19;60.48
2711;BME280;20721;47.402;8.550;2022-09-02T03:55:00;95992;;;16.17;60.43
2711;BME280;20721;47.402;8.550;2022-09-02T03:56:09;95991;;;16.15;60.41
2711;BME280;20721;47.402;8.550;2022-09-02T03:57:00;95994;;;16.14;60.42
2711;BME280;20721;47.402;8.550;2022-09-02T03:58:04;95992;;;16.12;60.40
2711;BME280;20721;47.402;8.550;2022-09-02T03:59:02;95993;;;16.13;60.40
2711;BME280;20721;47.402;8.550;2022-09-02T04:00:01;95991;;;16.12;60.45
2711;BME280;20721;47.402;8.550;2022-09-02T04:01:01;95989;;;16.11;60.36
2711;BME280;20721;47.402;8.550;2022-09-02T04:02:01;95988;;;16.10;60.36
2711;BME280;20721;47.402;8.550;2022-09-02T04:04:01;95986;;;16.09;60.31
2711;BME280;20721;47.402;8.550;2022-09-02T04:06:00;95987;;;16.10;60.30
2711;BME280;20721;47.402;8.550;2022-09-02T04:07:00;95984;;;16.09;60.19
2711;BME280;20721;47.402;8.550;2022-09-02T04:08:00;95990;;;16.08;60.21
2711;BME280;20721;47.402;8.550;2022-09-02T04:09:00;95988;;;16.06;60.23
2711;BME280;20721;47.402;8.550;2022-09-02T04:10:00;95989;;;16.04;60.27
2711;BME280;20721;47.402;8.550;2022-09-02T04:13:00;95990;;;16.05;60.24
2711;BME280;20721;47.402;8.550;2022-09-02T04:15:02;95989;;;16.04;60.15
2711;BME280;20721;47.402;8.550;2022-09-02T04:16:06;95989;;;16.03;60.14
2711;BME280;20721;47.402;8.550;2022-09-02T04:19:01;95990;;;16.01;60.10
2711;BME280;20721;47.402;8.550;2022-09-02T04:21:00;95993;;;16.00;60.08
2711;BME280;20721;47.402;8.550;2022-09-02T04:23:02;95990;;;15.99;60.05
2711;BME280;20721;47.402;8.550;2022-09-02T04:24:00;95991;;;15.97;60.03
2711;BME280;20721;47.402;8.550;2022-09-02T04:26:03;95989;;;15.99;60.05
2711;BME280;20721;47.402;8.550;2022-09-02T04:27:04;95988;;;15.97;60.00
2711;BME280;20721;47.402;8.550;2022-09-02T04:29:02;95990;;;15.95;59.98
2711;BME280;20721;47.402;8.550;2022-09-02T04:31:02;95990;;;15.94;59.98
2711;BME280;20721;47.402;8.550;2022-09-02T04:32:00;95991;;;15.92;60.02
2711;BME280;20721;47.402;8.550;2022-09-02T04:33:00;95996;;;15.91;60.05
2711;BME280;20721;47.402;8.550;2022-09-02T04:34:01;95993;;;15.89;60.08
2711;BME280;20721;47.402;8.550;2022-09-02T04:36:05;95990;;;15.88;60.16
2711;BME280;20721;47.402;8.550;2022-09-02T04:37:01;95992;;;15.87;60.18
2711;BME280;20721;47.402;8.550;2022-09-02T04:38:01;95992;;;15.86;60.25
2711;BME280;20721;47.402;8.550;2022-09-02T04:40:00;95992;;;15.84;60.23
2711;BME280;20721;47.402;8.550;2022-09-02T04:41:04;95994;;;15.83;60.25
2711;BME280;20721;47.402;8.550;2022-09-02T04:43:01;95995;;;15.84;60.35
2711;BME280;20721;47.402;8.550;2022-09-02T04:46:03;95995;;;15.83;60.23
2711;BME280;20721;47.402;8.550;2022-09-02T04:47:01;95995;;;15.82;60.21
2711;BME280;20721;47.402;8.550;2022-09-02T04:50:00;95994;;;15.83;60.30
2711;BME280;20721;47.402;8.550;2022-09-02T04:51:02;95991;;;15.82;60.25
2711;BME280;20721;47.402;8.550;2022-09-02T04:52:01;95991;;;15.81;60.32
2711;BME280;20721;47.402;8.550;2022-09-02T04:53:00;95990;;;15.80;60.35
2711;BME280;20721;47.402;8.550;2022-09-02T04:54:01;95992;;;15.79;60.35
2711;BME280;20721;47.402;8.550;2022-09-02T04:56:03;95988;;;15.78;60.40
2711;BME280;20721;47.402;8.550;2022-09-02T04:58:00;95986;;;15.79;60.40
2711;BME280;20721;47.402;8.550;2022-09-02T05:00:03;95987;;;15.78;60.46
2711;BME280;20721;47.402;8.550;2022-09-02T05:01:05;95990;;;15.79;60.45
2711;BME280;20721;47.402;8.550;2022-09-02T05:04:03;95992;;;15.80;60.47
2711;BME280;20721;47.402;8.550;2022-09-02T05:05:01;95993;;;15.81;60.40
2711;BME280;20721;47.402;8.550;2022-09-02T05:08:03;95995;;;15.82;60.45
2711;BME280;20721;47.402;8.550;2022-09-02T05:09:02;95994;;;15.83;60.42
2711;BME280;20721;47.402;8.550;2022-09-02T05:10:03;95996;;;15.85;60.37
2711;BME280;20721;47.402;8.550;2022-09-02T05:11:05;95992;;;15.87;60.38
2711;BME280;20721;47.402;8.550;2022-09-02T05:12:03;95995;;;15.89;60.30
2711;BME280;20721;47.402;8.550;2022-09-02T05:14:02;95996;;;15.90;60.25
2711;BME280;20721;47.402;8.550;2022-09-02T05:15:01;95993;;;15.91;60.13
2711;BME280;20721;47.402;8.550;2022-09-02T05:16:01;95994;;;15.92;60.09
2711;BME280;20721;47.402;8.550;2022-09-02T05:17:06;95995;;;15.94;60.08
2711;BME280;20721;47.402;8.550;2022-09-02T05:25:01;95991;;;15.96;60.15
2711;BME280;20721;47.402;8.550;2022-09-02T05:26:02;95992;;;15.97;60.18
2711;BME280;20721;47.402;8.550;2022-09-02T05:27:01;95986;;;15.99;60.12
2711;BME280;20721;47.402;8.550;2022-09-02T05:28:01;95989;;;16.02;60.09
2711;BME280;20721;47.402;8.550;2022-09-02T05:29:02;95986;;;16.05;60.06
2711;BME280;20721;47.402;8.550;2022-09-02T05:30:02;95984;;;16.07;60.02
2711;BME280;20721;47.402;8.550;2022-09-02T05:31:03;95986;;;16.10;59.95
2711;BME280;20721;47.402;8.550;2022-09-02T05:33:01;95993;;;16.11;59.84
2711;BME280;20721;47.402;8.550;2022-09-02T05:35:01;95992;;;16.14;59.82
2711;BME280;20721;47.402;8.550;2022-09-02T05:36:01;95991;;;16.16;59.77
2711;BME280;20721;47.402;8.550;2022-09-02T05:37:01;95990;;;16.17;59.78
2711;BME280;20721;47.402;8.550;2022-09-02T05:38:01;95994;;;16.20;59.72
2711;BME280;20721;47.402;8.550;2022-09-02T05:39:01;95993;;;16.22;59.69
2711;BME280;20721;47.402;8.550;2022-09-02T05:40:02;95995;;;16.24;59.64
2711;BME280;20721;47.402;8.550;2022-09-02T05:41:05;95991;;;16.27;59.55
2711;BME280;20721;47.402;8.550;2022-09-02T05:42:01;95993;;;16.32;59.54
2711;BME280;20721;47.402;8.550;2022-09-02T05:43:01;95996;;;16.35;59.39
2711;BME280;20721;47.402;8.550;2022-09-02T05:44:03;95994;;;16.39;59.33
2711;BME280;20721;47.402;8.550;2022-09-02T05:45:01;95994;;;16.44;59.25
2711;BME280;20721;47.402;8.550;2022-09-02T05:46:03;95995;;;16.48;59.24
2711;BME280;20721;47.402;8.550;2022-09-02T05:47:01;95995;;;16.54;59.16
2711;BME280;20721;47.402;8.550;2022-09-02T05:48:11;95991;;;16.60;59.04
2711;BME280;20721;47.402;8.550;2022-09-02T05:49:08;95993;;;16.66;58.85
2711;BME280;20721;47.402;8.550;2022-09-02T05:50:01;95993;;;16.73;58.83
2711;BME280;20721;47.402;8.550;2022-09-02T05:51:03;95992;;;16.80;58.60
2711;BME280;20721;47.402;8.550;2022-09-02T05:52:01;95993;;;16.86;58.51
2711;BME280;20721;47.402;8.550;2022-09-02T05:53:01;95992;;;16.92;58.37
2711;BME280;20721;47.402;8.550;2022-09-02T05:54:01;95992;;;16.98;58.20
2711;BME280;20721;47.402;8.550;2022-09-02T05:55:02;95993;;;17.03;58.04
2711;BME280;20721;47.402;8.550;2022-09-02T05:56:03;95993;;;17.08;57.77
2711;BME280;20721;47.402;8.550;2022-09-02T05:57:02;95996;;;17.12;57.65
2711;BME280;20721;47.402;8.550;2022-09-02T05:58:01;95995;;;17.15;57.46
2711;BME280;20721;47.402;8.550;2022-09-02T05:59:02;95996;;;17.20;57.13
2711;BME280;20721;47.402;8.550;2022-09-02T06:00:03;95992;;;17.21;57.08
2711;BME280;20721;47.402;8.550;2022-09-02T06:01:09;95988;;;17.25;57.03
2711;BME280;20721;47.402;8.550;2022-09-02T06:02:01;95995;;;17.30;57.12
2711;BME280;20721;47.402;8.550;2022-09-02T06:03:01;95992;;;17.34;56.98
2711;BME280;20721;47.402;8.550;2022-09-02T06:04:01;95991;;;17.41;56.93
2711;BME280;20721;47.402;8.550;2022-09-02T06:05:01;95995;;;17.47;56.72
2711;BME280;20721;47.402;8.550;2022-09-02T06:06:06;95996;;;17.51;56.57
2711;BME280;20721;47.402;8.550;2022-09-02T06:07:01;95996;;;17.55;56.45
2711;BME280;20721;47.402;8.550;2022-09-02T06:08:01;95997;;;17.61;56.34
2711;BME280;20721;47.402;8.550;2022-09-02T06:09:03;96000;;;17.67;55.98
2711;BME280;20721;47.402;8.550;2022-09-02T06:10:02;96001;;;17.72;55.83
2711;BME280;20721;47.402;8.550;2022-09-02T06:11:01;96005;;;17.77;55.76
2711;BME280;20721;47.402;8.550;2022-09-02T06:12:01;96003;;;17.83;55.61
2711;BME280;20721;47.402;8.550;2022-09-02T06:13:01;96001;;;17.88;55.50
2711;BME280;20721;47.402;8.550;2022-09-02T06:14:05;96003;;;17.92;55.30
2711;BME280;20721;47.402;8.550;2022-09-02T06:15:01;95999;;;17.97;55.33
2711;BME280;20721;47.402;8.550;2022-09-02T06:16:01;96003;;;18.04;55.26
2711;BME280;20721;47.402;8.550;2022-09-02T06:17:01;96003;;;18.11;55.03
2711;BME280;20721;47.402;8.550;2022-09-02T06:18:01;96002;;;18.17;54.87
2711;BME280;20721;47.402;8.550;2022-09-02T06:19:03;96005;;;18.24;54.74
2711;BME280;20721;47.402;8.550;2022-09-02T06:20:01;96002;;;18.30;54.71
2711;BME280;20721;47.402;8.550;2022-09-02T06:21:02;96003;;;18.37;54.54
2711;BME280;20721;47.402;8.550;2022-09-02T06:22:01;96007;;;18.43;53.90
2711;BME280;20721;47.402;8.550;2022-09-02T06:23:01;96004;;;18.46;53.61
2711;BME280;20721;47.402;8.550;2022-09-02T06:24:03;96003;;;18.50;53.86
2711;BME280;20721;47.402;8.550;2022-09-02T06:25:01;96000;;;18.54;53.76
2711;BME280;20721;47.402;8.550;2022-09-02T06:26:01;95999;;;18.59;53.84
2711;BME280;20721;47.402;8.550;2022-09-02T06:27:01;96000;;;18.65;53.73
2711;BME280;20721;47.402;8.550;2022-09-02T06:28:07;95998;;;18.70;53.61
2711;BME280;20721;47.402;8.550;2022-09-02T06:29:01;95996;;;18.77;53.53
2711;BME280;20721;47.402;8.550;2022-09-02T06:30:01;95998;;;18.83;53.33
2711;BME280;20721;47.402;8.550;2022-09-02T06:31:09;95993;;;18.90;53.11
2711;BME280;20721;47.402;8.550;2022-09-02T06:32:01;95993;;;18.95;52.97
2711;BME280;20721;47.402;8.550;2022-09-02T06:33:02;95987;;;19.04;52.83
2711;BME280;20721;47.402;8.550;2022-09-02T06:34:02;95988;;;19.12;52.70
2711;BME280;20721;47.402;8.550;2022-09-02T06:35:01;95986;;;19.18;52.64
2711;BME280;20721;47.402;8.550;2022-09-02T06:36:04;95991;;;19.27;52.47
2711;BME280;20721;47.402;8.550;2022-09-02T06:37:01;95987;;;19.35;52.39
2711;BME280;20721;47.402;8.550;2022-09-02T06:38:01;95987;;;19.44;52.05
2711;BME280;20721;47.402;8.550;2022-09-02T06:39:01;95987;;;19.50;51.81
2711;BME280;20721;47.402;8.550;2022-09-02T06:40:01;95988;;;19.56;51.75
2711;BME280;20721;47.402;8.550;2022-09-02T06:41:01;95985;;;19.61;51.12
2711;BME280;20721;47.402;8.550;2022-09-02T06:42:01;95989;;;19.55;51.39
2711;BME280;20721;47.402;8.550;2022-09-02T06:44:02;95988;;;19.57;50.86
2711;BME280;20721;47.402;8.550;2022-09-02T06:45:02;95989;;;19.61;51.12
2711;BME280;20721;47.402;8.550;2022-09-02T06:46:01;95988;;;19.68;51.17
2711;BME280;20721;47.402;8.550;2022-09-02T06:47:01;95988;;;19.76;51.00
2711;BME280;20721;47.402;8.550;2022-09-02T06:48:01;95986;;;19.85;50.95
2711;BME280;20721;47.402;8.550;2022-09-02T06:49:01;95988;;;19.94;50.39
2711;BME280;20721;47.402;8.550;2022-09-02T06:50:01;95984;;;20.04;50.49
2711;BME280;20721;47.402;8.550;2022-09-02T06:51:01;95982;;;20.15;50.37
2711;BME280;20721;47.402;8.550;2022-09-02T06:52:01;95984;;;20.26;49.74
2711;BME280;20721;47.402;8.550;2022-09-02T06:53:02;95985;;;20.37;49.41
2711;BME280;20721;47.402;8.550;2022-09-02T06:54:01;95987;;;20.44;49.23
2711;BME280;20721;47.402;8.550;2022-09-02T06:55:01;95984;;;20.41;49.16
2711;BME280;20721;47.402;8.550;2022-09-02T06:56:01;95983;;;20.45;49.17
2711;BME280;20721;47.402;8.550;2022-09-02T06:57:01;95983;;;20.52;49.09
2711;BME280;20721;47.402;8.550;2022-09-02T06:58:01;95983;;;20.61;48.77
2711;BME280;20721;47.402;8.550;2022-09-02T06:59:01;95981;;;20.68;48.47
2711;BME280;20721;47.402;8.550;2022-09-02T07:00:04;95979;;;20.75;48.34
2711;BME280;20721;47.402;8.550;2022-09-02T07:01:01;95979;;;20.82;47.80
2711;BME280;20721;47.402;8.550;2022-09-02T07:02:02;95979;;;20.89;48.07
2711;BME280;20721;47.402;8.550;2022-09-02T07:03:11;95978;;;20.98;47.93
2711;BME280;20721;47.402;8.550;2022-09-02T07:04:11;95974;;;21.10;48.09
2711;BME280;20721;47.402;8.550;2022-09-02T07:05:08;95976;;;21.24;47.84
2711;BME280;20721;47.402;8.550;2022-09-02T07:06:03;95976;;;21.33;47.44
2711;BME280;20721;47.402;8.550;2022-09-02T07:07:02;95977;;;21.46;47.43
2711;BME280;20721;47.402;8.550;2022-09-02T07:08:01;95982;;;21.64;46.81
2711;BME280;20721;47.402;8.550;2022-09-02T07:09:01;95982;;;21.80;46.39
2711;BME280;20721;47.402;8.550;2022-09-02T07:10:01;95975;;;21.91;45.98
2711;BME280;20721;47.402;8.550;2022-09-02T07:11:01;95982;;;22.03;45.74
2711;BME280;20721;47.402;8.550;2022-09-02T07:12:05;95982;;;22.13;45.58
2711;BME280;20721;47.402;8.550;2022-09-02T07:13:01;95986;;;22.26;45.70
2711;BME280;20721;47.402;8.550;2022-09-02T07:14:01;95986;;;22.40;45.41
2711;BME280;20721;47.402;8.550;2022-09-02T07:15:01;95984;;;22.53;44.45
2711;BME280;20721;47.402;8.550;2022-09-02T07:16:01;95983;;;22.64;44.34
2711;BME280;20721;47.402;8.550;2022-09-02T07:17:01;95982;;;22.74;44.25
2711;BME280;20721;47.402;8.550;2022-09-02T07:18:02;95982;;;22.83;44.28
2711;BME280;20721;47.402;8.550;2022-09-02T07:19:02;95980;;;22.92;43.63
2711;BME280;20721;47.402;8.550;2022-09-02T07:20:02;95984;;;23.01;43.94
2711;BME280;20721;47.402;8.550;2022-09-02T07:21:02;95984;;;23.11;43.97
2711;BME280;20721;47.402;8.550;2022-09-02T07:22:02;95987;;;23.23;43.75
2711;BME280;20721;47.402;8.550;2022-09-02T07:23:01;95986;;;23.35;43.70
2711;BME280;20721;47.402;8.550;2022-09-02T07:24:01;95984;;;23.50;43.40